createdAt,value
2022-08-21T00:02:18.719Z,0.68
2022-08-21T00:04:48.206Z,0.85
2022-08-21T00:07:25.284Z,0.80
2022-08-21T00:09:52.848Z,0.60
2022-08-21T00:12:20.474Z,0.80
2022-08-21T00:14:48.087Z,0.80
2022-08-21T00:17:15.456Z,0.80
2022-08-21T00:19:42.873Z,0.70
2022-08-21T00:22:10.423Z,0.77
2022-08-21T00:24:37.957Z,0.77
2022-08-21T00:27:05.457Z,0.70
2022-08-21T00:29:32.956Z,0.88
2022-08-21T00:32:00.791Z,0.82
2022-08-21T00:34:28.282Z,1.20
2022-08-21T00:36:55.736Z,0.93
2022-08-21T00:39:23.140Z,0.80
2022-08-21T00:41:50.654Z,0.70
2022-08-21T00:44:18.103Z,0.80
2022-08-21T00:46:45.683Z,0.70
2022-08-21T00:49:13.403Z,0.82
2022-08-21T00:51:43.922Z,0.85
2022-08-21T00:54:18.265Z,0.70
2022-08-21T00:56:51.825Z,0.80
2022-08-21T00:59:20.498Z,0.77
2022-08-21T01:01:48.103Z,0.50
2022-08-21T01:04:17.418Z,0.77
2022-08-21T01:06:45.170Z,0.60
2022-08-21T01:09:12.878Z,0.60
2022-08-21T01:11:40.954Z,0.50
2022-08-21T01:14:08.487Z,0.70
2022-08-21T01:16:39.147Z,0.73
2022-08-21T01:19:08.335Z,0.90
2022-08-21T01:21:35.673Z,0.75
2022-08-21T01:24:03.148Z,0.70
2022-08-21T01:26:34.622Z,0.70
2022-08-21T01:29:04.706Z,0.80
2022-08-21T01:31:33.938Z,0.75
2022-08-21T01:34:01.903Z,0.70
2022-08-21T01:36:29.327Z,0.55
2022-08-21T01:38:57.488Z,0.80
2022-08-21T01:41:24.946Z,0.63
2022-08-21T01:43:52.390Z,0.70
2022-08-21T01:46:19.779Z,0.65
2022-08-21T01:48:47.271Z,0.70
2022-08-21T01:51:14.753Z,0.90
2022-08-21T01:53:42.096Z,0.70
2022-08-21T01:56:12.289Z,0.80
2022-08-21T01:58:41.139Z,1.10
2022-08-21T02:01:08.522Z,0.90
2022-08-21T02:03:36.466Z,0.80
2022-08-21T02:06:08.150Z,1.58
2022-08-21T02:08:35.766Z,0.80
2022-08-21T02:11:03.274Z,0.70
2022-08-21T02:13:30.786Z,0.60
2022-08-21T02:15:58.338Z,0.70
2022-08-21T02:18:25.756Z,0.90
2022-08-21T02:20:55.859Z,0.70
2022-08-21T02:23:27.064Z,0.85
2022-08-21T02:25:56.250Z,0.80
2022-08-21T02:28:23.672Z,0.88
2022-08-21T02:30:52.713Z,0.75
2022-08-21T02:33:20.275Z,0.80
2022-08-21T02:35:48.698Z,1.02
2022-08-21T02:38:17.858Z,0.85
2022-08-21T02:40:48.049Z,0.90
2022-08-21T02:43:16.822Z,0.80
2022-08-21T02:45:44.789Z,0.80
2022-08-21T02:48:14.192Z,0.95
2022-08-21T02:50:47.679Z,0.80
2022-08-21T02:53:17.533Z,0.80
2022-08-21T02:55:46.263Z,0.90
2022-08-21T02:58:14.034Z,0.90
2022-08-21T03:00:44.789Z,0.95
2022-08-21T03:03:13.467Z,0.90
2022-08-21T03:05:41.046Z,0.90
2022-08-21T03:08:11.325Z,1.00
2022-08-21T03:10:40.794Z,0.80
2022-08-21T03:13:08.946Z,0.90
2022-08-21T03:15:36.991Z,0.90
2022-08-21T03:18:06.423Z,0.98
2022-08-21T03:20:34.044Z,0.80
2022-08-21T03:23:04.384Z,0.90
2022-08-21T03:25:41.131Z,0.90
2022-08-21T03:28:13.882Z,2.03
2022-08-21T03:30:42.943Z,0.80
2022-08-21T03:33:13.218Z,1.00
2022-08-21T03:35:47.006Z,0.85
2022-08-21T03:38:14.591Z,0.73
2022-08-21T03:40:45.217Z,0.95
2022-08-21T03:43:12.744Z,0.90
2022-08-21T03:45:40.576Z,0.70
2022-08-21T03:48:09.365Z,0.70
2022-08-21T03:50:40.866Z,0.80
2022-08-21T03:53:16.604Z,0.68
2022-08-21T03:55:46.022Z,1.02
2022-08-21T03:58:16.213Z,0.70
2022-08-21T04:00:45.246Z,0.88
2022-08-21T04:03:12.740Z,1.00
2022-08-21T04:05:40.284Z,0.93
2022-08-21T04:08:08.105Z,1.20
2022-08-21T04:10:37.168Z,0.90
2022-08-21T04:13:05.534Z,0.90
2022-08-21T04:15:33.079Z,0.90
2022-08-21T04:18:00.510Z,0.93
2022-08-21T04:20:28.388Z,0.73
2022-08-21T04:22:56.224Z,0.63
2022-08-21T04:25:25.059Z,0.88
2022-08-21T04:27:52.483Z,1.00
2022-08-21T04:30:20.012Z,0.88
2022-08-21T04:32:49.721Z,0.82
2022-08-21T04:35:18.446Z,0.82
2022-08-21T04:37:45.776Z,0.77
2022-08-21T04:40:14.391Z,1.00
2022-08-21T04:42:50.712Z,0.70
2022-08-21T04:45:21.078Z,1.00
2022-08-21T04:47:53.403Z,0.95
2022-08-21T04:50:22.251Z,0.70
2022-08-21T04:52:49.792Z,0.93
2022-08-21T04:55:18.292Z,1.00
2022-08-21T04:57:48.628Z,0.80
2022-08-21T05:00:19.872Z,1.15
2022-08-21T05:02:48.796Z,0.70
2022-08-21T05:05:17.183Z,0.98
2022-08-21T05:07:44.991Z,0.80
2022-08-21T05:10:13.891Z,0.90
2022-08-21T05:12:46.133Z,1.10
2022-08-21T05:15:14.323Z,0.90
2022-08-21T05:17:42.534Z,0.70
2022-08-21T05:20:13.798Z,0.65
2022-08-21T05:22:41.350Z,0.80
2022-08-21T05:25:10.414Z,0.93
2022-08-21T05:27:39.176Z,0.90
2022-08-21T05:30:08.805Z,0.80
2022-08-21T05:32:37.005Z,0.95
2022-08-21T05:35:05.854Z,0.77
2022-08-21T05:37:33.315Z,0.90
2022-08-21T05:40:20.362Z,0.90
2022-08-21T05:42:54.625Z,0.70
2022-08-21T05:45:42.025Z,0.70
2022-08-21T05:48:15.508Z,0.80
2022-08-21T05:50:43.263Z,0.85
2022-08-21T05:53:11.027Z,0.98
2022-08-21T05:55:44.230Z,0.75
2022-08-21T05:58:13.819Z,0.70
2022-08-21T06:00:41.334Z,0.80
2022-08-21T06:03:18.123Z,0.80
2022-08-21T06:05:46.769Z,0.80
2022-08-21T06:08:14.590Z,0.77
2022-08-21T06:10:42.001Z,0.70
2022-08-21T06:13:09.487Z,0.77
2022-08-21T06:15:36.927Z,0.90
2022-08-21T06:18:04.398Z,0.70
2022-08-21T06:20:32.633Z,0.70
2022-08-21T06:23:00.429Z,0.63
2022-08-21T06:25:28.117Z,0.90
2022-08-21T06:27:55.589Z,0.80
2022-08-21T06:30:23.039Z,0.57
2022-08-21T06:32:50.455Z,0.90
2022-08-21T06:35:17.974Z,0.80
2022-08-21T06:37:45.423Z,0.60
2022-08-21T06:40:13.280Z,0.80
2022-08-21T06:42:42.661Z,0.90
2022-08-21T06:45:10.563Z,1.00
2022-08-21T06:47:38.050Z,0.60
2022-08-21T06:50:08.530Z,0.60
2022-08-21T06:52:37.034Z,0.75
2022-08-21T06:55:06.014Z,0.70
2022-08-21T06:57:33.487Z,0.90
2022-08-21T07:00:00.858Z,0.70
2022-08-21T07:02:28.454Z,0.68
2022-08-21T07:04:55.893Z,0.75
2022-08-21T07:07:23.306Z,0.70
2022-08-21T07:09:50.762Z,0.90
2022-08-21T07:12:18.156Z,1.05
2022-08-21T07:14:45.594Z,0.70
2022-08-21T07:17:13.087Z,0.73
2022-08-21T07:19:40.597Z,1.05
2022-08-21T07:22:08.416Z,1.10
2022-08-21T07:24:35.976Z,0.80
2022-08-21T07:27:06.999Z,0.68
2022-08-21T07:29:36.908Z,0.80
2022-08-21T07:32:05.070Z,0.90
2022-08-21T07:34:32.619Z,0.60
2022-08-21T07:37:00.280Z,1.10
2022-08-21T07:39:33.857Z,0.80
2022-08-21T07:42:05.086Z,0.80
2022-08-21T07:44:35.544Z,0.88
2022-08-21T07:47:03.256Z,0.93
2022-08-21T07:49:30.698Z,1.13
2022-08-21T07:51:58.950Z,0.90
2022-08-21T07:54:34.434Z,0.70
2022-08-21T07:57:02.335Z,0.80
2022-08-21T07:59:29.851Z,0.80
2022-08-21T08:01:57.746Z,0.75
2022-08-21T08:04:26.560Z,0.90
2022-08-21T08:06:54.439Z,0.80
2022-08-21T08:09:21.978Z,0.82
2022-08-21T08:11:49.379Z,1.02
2022-08-21T08:14:16.932Z,0.70
2022-08-21T08:16:44.494Z,0.80
2022-08-21T08:19:12.106Z,0.90
2022-08-21T08:21:39.986Z,0.95
2022-08-21T08:24:18.957Z,0.98
2022-08-21T08:26:53.615Z,1.38
2022-08-21T08:29:22.444Z,0.82
2022-08-21T08:31:49.896Z,1.10
2022-08-21T08:34:25.367Z,0.80
2022-08-21T08:36:53.729Z,0.80
2022-08-21T08:39:26.870Z,0.93
2022-08-21T08:42:01.128Z,1.20
2022-08-21T08:44:30.304Z,0.90
2022-08-21T08:46:58.471Z,0.80
2022-08-21T08:49:44.723Z,0.88
2022-08-21T08:52:17.983Z,0.80
2022-08-21T08:54:50.317Z,0.95
2022-08-21T08:57:20.802Z,1.00
2022-08-21T08:59:51.607Z,1.00
2022-08-21T09:02:24.148Z,0.80
2022-08-21T09:04:52.911Z,0.77
2022-08-21T09:07:52.760Z,0.80
2022-08-21T09:10:26.103Z,0.80
2022-08-21T09:13:05.666Z,0.70
2022-08-21T09:15:35.900Z,0.90
2022-08-21T09:18:07.863Z,0.70
2022-08-21T09:20:50.200Z,0.68
2022-08-21T09:23:23.460Z,0.77
2022-08-21T09:26:13.704Z,0.70
2022-08-21T09:28:44.150Z,0.70
2022-08-21T09:31:23.537Z,0.60
2022-08-21T09:33:51.307Z,0.70
2022-08-21T09:36:39.631Z,0.82
2022-08-21T09:39:07.577Z,0.77
2022-08-21T09:41:39.284Z,0.63
2022-08-21T09:44:08.011Z,0.80
2022-08-21T09:46:35.601Z,0.60
2022-08-21T09:49:04.228Z,0.70
2022-08-21T09:51:36.076Z,0.80
2022-08-21T09:54:09.606Z,0.70
2022-08-21T09:56:57.549Z,0.50
2022-08-21T09:59:36.484Z,0.65
2022-08-21T10:02:24.812Z,0.70
2022-08-21T10:04:54.725Z,0.60
2022-08-21T10:07:24.348Z,0.70
2022-08-21T10:10:09.075Z,0.70
2022-08-21T10:13:02.518Z,0.57
2022-08-21T10:15:50.004Z,0.52
2022-08-21T10:18:39.547Z,0.82
2022-08-21T10:21:12.280Z,0.52
2022-08-21T10:23:39.784Z,0.63
2022-08-21T10:26:14.074Z,0.70
2022-08-21T10:28:42.097Z,0.65
2022-08-21T10:31:09.532Z,0.60
2022-08-21T10:33:51.118Z,0.60
2022-08-21T10:36:23.896Z,0.70
2022-08-21T10:39:17.483Z,0.70
2022-08-21T10:41:44.485Z,0.50
2022-08-21T10:44:30.551Z,0.70
2022-08-21T10:47:08.719Z,0.60
2022-08-21T10:49:47.137Z,0.55
2022-08-21T10:52:33.303Z,0.52
2022-08-21T10:55:19.237Z,0.75
2022-08-21T10:58:06.914Z,0.50
2022-08-21T11:01:09.870Z,0.70
2022-08-21T11:03:40.955Z,0.60
2022-08-21T11:06:14.960Z,0.60
2022-08-21T11:08:47.801Z,0.60
2022-08-21T11:11:24.560Z,0.60
2022-08-21T11:13:57.753Z,0.73
2022-08-21T11:16:33.544Z,0.60
2022-08-21T11:19:21.252Z,0.52
2022-08-21T11:21:52.761Z,0.50
2022-08-21T11:24:39.874Z,0.60
2022-08-21T11:27:13.631Z,0.47
2022-08-21T11:29:42.165Z,0.43
2022-08-21T11:32:28.158Z,0.60
2022-08-21T11:35:01.219Z,0.50
2022-08-21T11:37:31.752Z,0.55
2022-08-21T11:40:04.633Z,0.57
2022-08-21T11:42:55.435Z,0.50
2022-08-21T11:45:28.323Z,0.43
2022-08-21T11:48:00.030Z,0.60
2022-08-21T11:50:35.299Z,0.50
2022-08-21T11:53:13.163Z,0.30
2022-08-21T11:55:47.408Z,0.43
2022-08-21T11:58:33.543Z,0.43
2022-08-21T12:01:10.435Z,0.40
2022-08-21T12:03:41.199Z,0.50
2022-08-21T12:06:14.443Z,0.43
2022-08-21T12:08:59.383Z,0.38
2022-08-21T12:11:30.621Z,0.40
2022-08-21T12:14:00.500Z,0.50
2022-08-21T12:16:33.094Z,0.40
2022-08-21T12:19:06.755Z,0.50
2022-08-21T12:21:34.859Z,0.47
2022-08-21T12:24:17.755Z,0.45
2022-08-21T12:26:54.250Z,0.40
2022-08-21T12:29:27.441Z,0.50
2022-08-21T12:31:57.587Z,0.40
2022-08-21T12:34:26.658Z,0.45
2022-08-21T12:37:20.373Z,0.50
2022-08-21T12:39:49.600Z,0.30
2022-08-21T12:42:18.768Z,0.40
2022-08-21T12:44:55.021Z,0.50
2022-08-21T12:47:40.997Z,0.40
2022-08-21T12:50:31.155Z,0.50
2022-08-21T12:53:06.628Z,0.50
2022-08-21T12:55:48.345Z,0.50
2022-08-21T12:58:22.603Z,0.40
2022-08-21T13:00:56.235Z,0.32
2022-08-21T13:03:24.300Z,0.40
2022-08-21T13:05:53.035Z,0.52
2022-08-21T13:08:21.675Z,0.38
2022-08-21T13:10:51.179Z,0.57
2022-08-21T13:13:25.687Z,0.40
2022-08-21T13:16:00.271Z,0.47
2022-08-21T13:18:29.710Z,0.50
2022-08-21T13:21:06.683Z,0.40
2022-08-21T13:23:34.354Z,0.45
2022-08-21T13:26:03.879Z,0.80
2022-08-21T13:28:35.571Z,0.60
2022-08-21T13:31:03.054Z,0.60
2022-08-21T13:33:37.532Z,0.55
2022-08-21T13:36:31.560Z,0.40
2022-08-21T13:38:59.113Z,0.60
2022-08-21T13:41:28.999Z,0.40
2022-08-21T13:44:01.062Z,0.60
2022-08-21T13:46:30.242Z,0.40
2022-08-21T13:49:00.331Z,0.60
2022-08-21T13:51:28.525Z,0.50
2022-08-21T13:53:56.815Z,0.43
2022-08-21T13:56:29.172Z,0.43
2022-08-21T13:58:57.881Z,0.60
2022-08-21T14:01:43.884Z,0.43
2022-08-21T14:04:20.521Z,0.60
2022-08-21T14:06:48.139Z,0.60
2022-08-21T14:09:25.162Z,0.40
2022-08-21T14:11:52.684Z,0.60
2022-08-21T14:14:20.075Z,0.57
2022-08-21T14:16:49.051Z,0.60
2022-08-21T14:19:21.432Z,0.60
2022-08-21T14:21:48.964Z,0.60
2022-08-21T14:24:25.344Z,0.60
2022-08-21T14:26:54.829Z,0.60
2022-08-21T14:29:23.551Z,0.60
2022-08-21T14:31:52.337Z,0.57
2022-08-21T14:34:20.095Z,0.63
2022-08-21T14:36:47.991Z,0.50
2022-08-21T14:39:15.473Z,0.60
2022-08-21T14:41:43.955Z,0.57
2022-08-21T14:44:11.424Z,0.60
2022-08-21T14:46:45.821Z,0.45
2022-08-21T14:49:24.538Z,0.65
2022-08-21T14:51:58.018Z,0.60
2022-08-21T14:54:31.012Z,0.35
2022-08-21T14:57:10.421Z,0.40
2022-08-21T14:59:39.025Z,0.50
2022-08-21T15:02:07.101Z,0.40
2022-08-21T15:04:35.319Z,0.45
2022-08-21T15:07:03.094Z,0.50
2022-08-21T15:09:30.615Z,0.52
2022-08-21T15:12:00.414Z,0.40
2022-08-21T15:14:29.384Z,0.55
2022-08-21T15:17:00.309Z,0.50
2022-08-21T15:19:28.474Z,0.40
2022-08-21T15:21:55.930Z,0.45
2022-08-21T15:24:23.374Z,0.50
2022-08-21T15:26:51.146Z,0.50
2022-08-21T15:29:22.625Z,0.50
2022-08-21T15:32:01.713Z,0.80
2022-08-21T15:34:30.473Z,0.40
2022-08-21T15:37:01.126Z,0.40
2022-08-21T15:39:31.153Z,0.30
2022-08-21T15:42:10.679Z,0.38
2022-08-21T15:44:39.699Z,0.60
2022-08-21T15:47:08.353Z,0.40
2022-08-21T15:49:35.724Z,0.60
2022-08-21T15:52:03.233Z,0.75
2022-08-21T15:54:31.147Z,0.40
2022-08-21T15:57:01.357Z,0.40
2022-08-21T15:59:28.871Z,0.40
2022-08-21T16:01:56.335Z,0.40
2022-08-21T16:04:26.104Z,0.40
2022-08-21T16:06:59.887Z,0.50
2022-08-21T16:09:31.499Z,0.30
2022-08-21T16:12:00.110Z,0.30
2022-08-21T16:14:28.021Z,0.50
2022-08-21T16:16:55.589Z,0.40
2022-08-21T16:19:23.076Z,0.40
2022-08-21T16:21:50.747Z,0.50
2022-08-21T16:24:18.128Z,0.50
2022-08-21T16:26:45.585Z,0.60
2022-08-21T16:29:25.444Z,0.40
2022-08-21T16:31:54.603Z,0.52
2022-08-21T16:34:22.125Z,0.40
2022-08-21T16:36:49.578Z,0.50
2022-08-21T16:39:17.271Z,0.30
2022-08-21T16:41:44.753Z,0.60
2022-08-21T16:44:12.296Z,0.32
2022-08-21T16:46:40.811Z,0.60
2022-08-21T16:49:08.436Z,0.60
2022-08-21T16:51:35.859Z,0.60
2022-08-21T16:54:03.424Z,0.60
2022-08-21T16:56:31.033Z,0.50
2022-08-21T16:58:59.312Z,0.47
2022-08-21T17:01:28.813Z,0.50
2022-08-21T17:03:56.394Z,0.50
2022-08-21T17:06:29.040Z,0.30
2022-08-21T17:08:57.390Z,0.43
2022-08-21T17:11:36.651Z,0.60
2022-08-21T17:14:11.582Z,0.50
2022-08-21T17:16:40.059Z,0.40
2022-08-21T17:19:08.286Z,0.55
2022-08-21T17:21:36.233Z,0.50
2022-08-21T17:24:03.777Z,0.47
2022-08-21T17:26:31.323Z,0.40
2022-08-21T17:28:58.775Z,0.60
2022-08-21T17:31:26.387Z,0.75
2022-08-21T17:33:56.502Z,0.70
2022-08-21T17:36:25.326Z,0.55
2022-08-21T17:38:52.846Z,0.52
2022-08-21T17:41:21.521Z,0.90
2022-08-21T17:43:49.802Z,0.70
2022-08-21T17:46:21.406Z,0.70
2022-08-21T17:48:48.912Z,0.55
2022-08-21T17:51:17.030Z,0.50
2022-08-21T17:53:45.167Z,0.70
2022-08-21T17:56:14.124Z,0.55
2022-08-21T17:58:43.615Z,0.47
2022-08-21T18:01:11.895Z,0.60
2022-08-21T18:03:39.490Z,0.70
2022-08-21T18:06:07.437Z,0.60
2022-08-21T18:08:35.153Z,0.60
2022-08-21T18:11:02.745Z,0.63
2022-08-21T18:13:33.104Z,0.70
2022-08-21T18:16:01.199Z,0.77
2022-08-21T18:18:29.976Z,0.80
2022-08-21T18:20:58.200Z,0.70
2022-08-21T18:23:43.580Z,0.60
2022-08-21T18:26:14.011Z,0.82
2022-08-21T18:28:41.918Z,0.70
2022-08-21T18:31:11.628Z,0.63
2022-08-21T18:33:39.989Z,0.70
2022-08-21T18:36:20.975Z,0.70
2022-08-21T18:38:48.890Z,0.55
2022-08-21T18:41:16.365Z,0.80
2022-08-21T18:43:43.947Z,0.60
2022-08-21T18:46:11.446Z,0.60
2022-08-21T18:48:38.879Z,0.55
2022-08-21T18:51:06.659Z,0.57
2022-08-21T18:53:36.407Z,0.70
2022-08-21T18:56:05.261Z,0.70
2022-08-21T18:58:34.324Z,0.80
2022-08-21T19:01:01.838Z,0.60
2022-08-21T19:03:31.756Z,0.60
2022-08-21T19:05:59.194Z,0.73
2022-08-21T19:08:28.841Z,0.60
2022-08-21T19:10:58.280Z,0.82
2022-08-21T19:13:28.540Z,0.50
2022-08-21T19:15:56.898Z,0.60
2022-08-21T19:18:28.233Z,0.80
2022-08-21T19:20:57.346Z,0.60
2022-08-21T19:23:29.275Z,0.77
2022-08-21T19:26:00.572Z,0.85
2022-08-21T19:28:30.035Z,0.70
2022-08-21T19:31:01.673Z,0.68
2022-08-21T19:33:35.222Z,0.65
2022-08-21T19:36:02.946Z,0.70
2022-08-21T19:38:30.420Z,0.70
2022-08-21T19:40:59.739Z,0.50
2022-08-21T19:43:29.181Z,1.00
2022-08-21T19:45:57.657Z,0.60
2022-08-21T19:51:13.331Z,0.85
2022-08-21T19:53:40.809Z,0.65
2022-08-21T19:56:19.604Z,0.63
2022-08-21T19:58:50.662Z,0.70
2022-08-21T20:01:19.000Z,0.70
2022-08-21T20:03:53.872Z,0.80
2022-08-21T20:06:22.166Z,0.65
2022-08-21T20:08:52.327Z,0.80
2022-08-21T20:11:22.442Z,0.73
2022-08-21T20:13:49.932Z,0.80
2022-08-21T20:16:17.484Z,0.63
2022-08-21T20:18:44.894Z,0.55
2022-08-21T20:21:13.418Z,0.65
2022-08-21T20:23:43.089Z,0.70
2022-08-21T20:26:17.153Z,1.48
2022-08-21T20:28:44.618Z,1.60
2022-08-21T20:31:14.670Z,0.80
2022-08-21T20:33:42.425Z,1.20
2022-08-21T20:36:10.370Z,0.98
2022-08-21T20:38:38.885Z,0.65
2022-08-21T20:43:57.814Z,0.60
2022-08-21T20:46:27.092Z,0.70
2022-08-21T20:48:54.935Z,0.68
2022-08-21T20:51:25.723Z,0.70
2022-08-21T20:54:00.662Z,0.75
2022-08-21T20:56:38.393Z,0.80
2022-08-21T20:59:15.506Z,0.95
2022-08-21T21:01:44.355Z,1.00
2022-08-21T21:04:21.375Z,0.77
2022-08-21T21:06:50.242Z,0.70
2022-08-21T21:09:24.355Z,0.95
2022-08-21T21:11:55.384Z,0.80
2022-08-21T21:14:25.033Z,0.95
2022-08-21T21:17:01.184Z,0.75
2022-08-21T21:19:37.290Z,0.93
2022-08-21T21:22:26.145Z,1.23
2022-08-21T21:24:53.567Z,0.88
2022-08-21T21:27:25.737Z,0.90
2022-08-21T21:30:00.665Z,0.80
2022-08-21T21:32:29.505Z,0.80
2022-08-21T21:34:57.346Z,1.02
2022-08-21T21:37:26.779Z,0.80
2022-08-21T21:40:00.966Z,0.90
2022-08-21T21:42:36.953Z,0.90
2022-08-21T21:45:04.400Z,1.30
2022-08-21T21:47:38.000Z,0.73
2022-08-21T21:50:08.894Z,0.90
2022-08-21T21:52:58.958Z,0.80
2022-08-21T21:55:36.572Z,0.80
2022-08-21T21:58:24.679Z,0.90
2022-08-21T22:00:57.339Z,0.90
2022-08-21T22:03:25.336Z,0.93
2022-08-21T22:05:52.812Z,0.73
2022-08-21T22:08:39.513Z,0.98
2022-08-21T22:11:24.092Z,1.10
2022-08-21T22:13:52.133Z,0.80
2022-08-21T22:16:20.062Z,0.90
2022-08-21T22:18:54.793Z,0.95
2022-08-21T22:21:43.423Z,0.90
2022-08-21T22:24:15.157Z,1.00
2022-08-21T22:26:44.586Z,0.90
2022-08-21T22:29:14.788Z,1.00
2022-08-21T22:31:42.684Z,0.80
2022-08-21T22:37:02.930Z,0.73
2022-08-21T22:39:38.575Z,0.80
2022-08-21T22:42:10.815Z,0.80
2022-08-21T22:44:48.679Z,0.80
2022-08-21T22:47:20.721Z,0.90
2022-08-21T22:49:49.703Z,0.98
2022-08-21T22:52:21.044Z,0.93
2022-08-21T22:54:51.678Z,1.08
2022-08-21T22:57:30.573Z,0.90
2022-08-21T23:00:21.153Z,0.90
2022-08-21T23:02:52.352Z,0.75
2022-08-21T23:05:30.828Z,1.00
2022-08-21T23:08:14.731Z,0.88
2022-08-21T23:10:51.771Z,0.80
2022-08-21T23:13:20.350Z,0.70
2022-08-21T23:16:07.155Z,0.95
2022-08-21T23:18:49.754Z,0.80
2022-08-21T23:21:37.479Z,0.90
2022-08-21T23:27:47.125Z,1.02
2022-08-21T23:30:19.165Z,0.85
2022-08-21T23:32:47.086Z,0.90
2022-08-21T23:35:44.178Z,0.75
2022-08-21T23:38:20.141Z,0.80
2022-08-21T23:40:59.467Z,0.82
2022-08-21T23:43:37.261Z,1.00
2022-08-21T23:46:05.014Z,1.10
2022-08-21T23:48:42.352Z,1.15
2022-08-21T23:51:12.749Z,1.00
2022-08-21T23:54:09.085Z,0.93
2022-08-21T23:56:39.520Z,0.93
2022-08-21T23:59:10.347Z,0.80
